Briefing drone pour Genlis

Rechercher une autre localisation

Conditions de vol :


Nous sommes le : Lundi 24 janvier 2022
Il est 22:43 UTC (23:43 LT)

Lever de soleil : 06:47 UTC (07:47 LT)
Coucher de soleil : 16:54 UTC (17:54 LT)


Warning: min(): Array must contain at least one element in /homepages/6/d509196549/htdocs/briefdrone/includes/function/metar/metar.php on line 1265

Météo

L'essentiel des conditions de vol

VIGILANCE MÉTÉO FRANCE - Côte-dOr (21)
Pas de vigilances particulieres
METAR de LFSD
LFSD 242230Z AUTO VRB02KT 0500 R35/0600N FZFG VV/// M01/M01 Q1032

Date d'émission: 24/01/2022
Heure d'émission: 22:30 UTC
Vent: Variable 2 KT (4 km/h)
Visibilité horizontale: 0500/R35/0600N m
Température: -1 °C
Point de rosée: -1 °C
Humidité: 100%
Pression (QNH): 1032 hPa
Conditions: Brouillard givrant
TAF de LFSD
LFSD 010600Z 0100/0124 CNL

Conditions prévues :

Heure d'émission : Bulletin éffectué le 01 à 00:00 UTC
Prévision : Valide du 01 a 00:00 UTC au 01 a 23:59 UTC
Nuages : à 0ft (0 m)
WEBCAM POUR GENLIS

Réglementation

Voler en sécurité

CARTES AERONAUTIQUE 1/500.000
CARTES VAC (LFSD)
SUP AIP




Chargement des AIP...
NOTAM (GENLIS + Terrain à proximité / FIR )




Chargement des NOTAMS...
CONTACT PREFECTURE 21
Côte-dOr (21) : pref-drone@cote-dor.gouv.fr


Avertissement : Les données mises à disposition sont indicatives. Oxygène Drone ne pourra être tenu responsable de dégâts causés aux biens et aux personnes.